Time;durP1;ratioP1;P1;durP2;ratioP2;P2;SDS_P1;SDS_P2;PMS_P1;PMS_P2;Temp;Humidity;BMP_temperature;BMP_pressure;BME280_temperature;BME280_humidity;BME280_pressure;Samples;Min_cycle;Max_cycle;Signal;HPM_P1;HPM_P2
2022/04/03 00:01:25;;;;;;;24.05;13.05;;;-0.20;99.90;;;;;;4942048;28;20188;-82
2022/04/03 00:03:51;;;;;;;35.17;14.18;;;-0.20;99.90;;;;;;4937294;29;20256;-84
2022/04/03 00:06:17;;;;;;;20.80;14.63;;;-0.20;99.90;;;;;;4956348;28;20207;-83
2022/04/03 00:08:43;;;;;;;26.88;13.80;;;-0.10;99.90;;;;;;4958161;28;20208;-84
2022/04/03 00:11:10;;;;;;;28.80;15.77;;;-0.10;99.90;;;;;;4942966;29;20208;-83
2022/04/03 00:13:36;;;;;;;26.58;14.10;;;-0.10;99.90;;;;;;4938553;29;20250;-83
2022/04/03 00:16:05;;;;;;;32.03;16.42;;;0.30;99.90;;;;;;4943506;29;20204;-84
2022/04/03 00:18:32;;;;;;;34.33;15.88;;;-0.10;99.90;;;;;;4940676;29;20236;-81
2022/04/03 00:20:58;;;;;;;24.35;15.40;;;-0.10;99.90;;;;;;4960446;28;20187;-84
2022/04/03 00:23:23;;;;;;;24.73;13.70;;;-0.20;99.90;;;;;;4958874;28;20649;-81
2022/04/03 00:25:51;;;;;;;23.33;13.47;;;-0.20;99.90;;;;;;4959103;28;20450;-83
2022/04/03 00:28:17;;;;;;;35.80;18.55;;;-0.20;99.90;;;;;;4958378;29;20446;-84
2022/04/03 00:30:43;;;;;;;27.63;12.83;;;-0.10;99.90;;;;;;4959056;28;20204;-82
2022/04/03 00:33:09;;;;;;;19.75;12.90;;;-0.20;99.90;;;;;;4960217;28;20812;-84
2022/04/03 00:35:35;;;;;;;25.80;12.35;;;-0.30;99.90;;;;;;4940929;29;20223;-83
2022/04/03 00:38:01;;;;;;;23.07;12.60;;;-0.40;99.90;;;;;;4958487;29;20641;-84
2022/04/03 00:40:26;;;;;;;26.17;13.87;;;-0.40;99.90;;;;;;4953823;29;20208;-83
2022/04/03 00:42:52;;;;;;;34.50;14.03;;;-0.40;99.90;;;;;;4958102;29;20264;-83
2022/04/03 00:45:19;;;;;;;24.27;13.23;;;-0.40;99.90;;;;;;4958197;28;20240;-83
2022/04/03 00:47:45;;;;;;;22.63;13.10;;;-0.40;99.90;;;;;;4941178;29;20191;-84
2022/04/03 00:50:11;;;;;;;23.85;12.82;;;-0.30;99.90;;;;;;4954979;28;20279;-83
2022/04/03 00:52:37;;;;;;;21.30;11.30;;;-0.30;99.90;;;;;;4965883;28;20207;-83
2022/04/03 00:55:03;;;;;;;25.90;13.67;;;;;;;;;;4944146;28;20420;-83
2022/04/03 00:57:29;;;;;;;24.80;11.43;;;-0.20;99.90;;;;;;4958499;29;20558;-83
2022/04/03 00:59:55;;;;;;;22.40;13.57;;;-0.20;99.90;;;;;;4946635;29;20180;-85
2022/04/03 01:02:21;;;;;;;23.02;13.13;;;-0.10;99.90;;;;;;4941997;29;20640;-84
2022/04/03 01:04:47;;;;;;;20.00;13.53;;;-0.10;99.90;;;;;;4959762;29;20169;-83
2022/04/03 01:07:13;;;;;;;23.23;13.00;;;-0.10;99.90;;;;;;4959857;28;20201;-84
2022/04/03 01:09:38;;;;;;;18.90;11.97;;;-0.20;99.90;;;;;;4958915;29;20188;-84
2022/04/03 01:12:05;;;;;;;26.87;13.13;;;-0.30;99.90;;;;;;4958450;29;20424;-84
2022/04/03 01:14:35;;;;;;;24.88;12.82;;;-0.30;99.90;;;;;;4957826;29;20177;-84
2022/04/03 01:17:01;;;;;;;20.10;11.63;;;-0.30;99.90;;;;;;4959561;28;20204;-84
2022/04/03 01:19:27;;;;;;;19.23;12.02;;;-0.20;99.90;;;;;;4958566;29;20187;-84
2022/04/03 01:21:52;;;;;;;25.37;13.20;;;-0.20;99.90;;;;;;4944682;29;20180;-84
2022/04/03 01:24:19;;;;;;;23.30;13.20;;;-0.10;99.90;;;;;;4962036;28;20645;-84
2022/04/03 01:26:45;;;;;;;25.67;15.18;;;-0.10;99.90;;;;;;4943563;28;20200;-83
2022/04/03 01:29:11;;;;;;;33.90;17.48;;;-0.10;99.90;;;;;;4958874;28;20251;-83
2022/04/03 01:31:36;;;;;;;23.20;14.37;;;0.00;99.90;;;;;;4957275;28;20201;-84
2022/04/03 01:34:02;;;;;;;29.20;15.40;;;0.00;99.90;;;;;;4957682;28;20184;-83
2022/04/03 01:36:27;;;;;;;30.93;15.00;;;0.00;99.90;;;;;;4958399;28;20197;-83
2022/04/03 01:38:53;;;;;;;22.43;14.50;;;0.00;99.90;;;;;;4959030;29;20236;-83
2022/04/03 01:41:18;;;;;;;26.43;15.87;;;-0.10;99.90;;;;;;4958835;29;20188;-83
2022/04/03 01:43:44;;;;;;;28.33;13.77;;;-0.20;99.90;;;;;;4958880;29;20255;-83
2022/04/03 01:46:10;;;;;;;29.27;15.00;;;-0.20;99.90;;;;;;4953864;28;20215;-80
2022/04/03 01:48:35;;;;;;;31.27;16.57;;;-0.20;99.90;;;;;;4933212;28;20240;-81
2022/04/03 01:51:01;;;;;;;24.93;15.93;;;-0.10;99.90;;;;;;4945460;28;20207;-80
2022/04/03 01:53:26;;;;;;;29.60;15.60;;;-0.10;99.90;;;;;;4932221;28;20184;-81
2022/04/03 01:56:04;;;;;;;27.27;15.17;;;-0.10;99.90;;;;;;4946465;28;20232;-82
2022/04/03 01:58:30;;;;;;;25.08;14.73;;;0.00;99.90;;;;;;4943478;28;20185;-80
2022/04/03 02:00:56;;;;;;;30.45;16.45;;;0.00;99.90;;;;;;4933349;28;20209;-81
2022/04/03 02:03:22;;;;;;;26.77;14.48;;;0.00;99.90;;;;;;4946283;28;20204;-81
2022/04/03 02:05:48;;;;;;;25.95;16.35;;;0.00;99.90;;;;;;4934278;28;20243;-79
2022/04/03 02:08:14;;;;;;;27.90;13.80;;;0.10;99.90;;;;;;4953160;28;20302;-80
2022/04/03 02:10:40;;;;;;;28.13;14.83;;;0.20;99.90;;;;;;4935382;28;20209;-80
2022/04/03 02:13:05;;;;;;;21.20;13.00;;;0.30;99.90;;;;;;4938045;28;20256;-80
2022/04/03 02:15:31;;;;;;;24.80;12.80;;;0.30;99.90;;;;;;4953973;28;20204;-81
2022/04/03 02:17:57;;;;;;;22.00;14.03;;;0.20;99.90;;;;;;4952171;28;20185;-82
2022/04/03 02:20:23;;;;;;;29.10;14.23;;;0.20;99.90;;;;;;4953263;28;20427;-79
2022/04/03 02:22:48;;;;;;;19.20;11.60;;;0.20;99.90;;;;;;4950660;28;20251;-81
2022/04/03 02:25:14;;;;;;;20.60;12.80;;;0.30;99.90;;;;;;4950500;28;20208;-81
2022/04/03 02:27:44;;;;;;;21.40;13.13;;;0.30;99.90;;;;;;4952968;28;20280;-82
2022/04/03 02:30:10;;;;;;;19.67;12.00;;;0.30;99.90;;;;;;4936112;28;20209;-84
2022/04/03 02:32:40;;;;;;;20.90;12.30;;;0.30;99.90;;;;;;4937029;28;20177;-83
2022/04/03 02:35:11;;;;;;;21.33;12.15;;;0.20;99.90;;;;;;4928173;28;20185;-82
2022/04/03 02:37:38;;;;;;;19.60;11.70;;;0.20;99.90;;;;;;4930797;28;20199;-81
2022/04/03 02:40:06;;;;;;;20.20;11.73;;;0.30;99.90;;;;;;4953066;28;20189;-81
2022/04/03 02:42:32;;;;;;;23.02;12.60;;;0.80;99.90;;;;;;4934750;28;20189;-81
2022/04/03 02:44:58;;;;;;;18.55;11.45;;;0.40;99.90;;;;;;4930874;28;20863;-83
2022/04/03 02:47:24;;;;;;;19.13;10.87;;;0.40;99.90;;;;;;4934435;28;20264;-80
2022/04/03 02:49:51;;;;;;;21.27;11.37;;;0.50;99.90;;;;;;4952285;28;20440;-80
2022/04/03 02:52:17;;;;;;;19.58;11.57;;;0.50;99.90;;;;;;4955618;28;21482;-81
2022/04/03 02:54:44;;;;;;;14.63;10.10;;;0.50;99.90;;;;;;4950170;28;20216;-81
2022/04/03 02:57:11;;;;;;;17.05;10.52;;;0.60;99.90;;;;;;4935228;28;20205;-82
2022/04/03 02:59:36;;;;;;;16.88;11.20;;;0.50;99.90;;;;;;4949155;28;20212;-80
2022/04/03 03:02:02;;;;;;;20.73;11.57;;;0.50;99.90;;;;;;4952022;28;20196;-81
2022/04/03 03:04:27;;;;;;;16.07;10.47;;;0.80;99.90;;;;;;4928559;28;20181;-83
2022/04/03 03:06:54;;;;;;;22.33;10.43;;;0.10;99.90;;;;;;4947793;28;20208;-81
2022/04/03 03:09:19;;;;;;;19.50;10.27;;;0.00;99.90;;;;;;4948644;28;20173;-82
2022/04/03 03:11:45;;;;;;;18.00;10.80;;;0.00;99.90;;;;;;4931870;28;21443;-82
2022/04/03 03:14:10;;;;;;;20.77;12.27;;;0.00;99.90;;;;;;4946539;28;20434;-81
2022/04/03 03:16:36;;;;;;;18.50;10.23;;;0.10;99.90;;;;;;4929772;28;20208;-80
2022/04/03 03:19:02;;;;;;;17.90;10.50;;;0.20;99.90;;;;;;4931905;28;20207;-82
2022/04/03 03:21:28;;;;;;;17.40;10.70;;;0.20;99.90;;;;;;4934586;28;20477;-82
2022/04/03 03:23:53;;;;;;;19.50;10.40;;;0.30;99.90;;;;;;4928732;28;20193;-82
2022/04/03 03:26:20;;;;;;;19.77;11.13;;;0.30;99.90;;;;;;4926949;28;21023;-82
2022/04/03 03:28:46;;;;;;;15.98;9.68;;;0.40;99.90;;;;;;4945846;28;20180;-81
2022/04/03 03:31:11;;;;;;;16.50;10.13;;;0.40;99.90;;;;;;4929692;28;20708;-79
2022/04/03 03:33:37;;;;;;;17.80;10.17;;;0.40;99.90;;;;;;4949724;28;20570;-81
2022/04/03 03:36:05;;;;;;;22.63;12.63;;;0.40;99.90;;;;;;4944736;28;20248;-82
2022/04/03 03:38:31;;;;;;;16.50;9.95;;;0.40;99.90;;;;;;4927453;28;20185;-80
2022/04/03 03:40:56;;;;;;;13.07;9.40;;;0.40;99.90;;;;;;4921471;28;20184;-80
2022/04/03 03:43:22;;;;;;;15.80;9.43;;;0.40;99.90;;;;;;4929853;28;21216;-80
2022/04/03 03:45:48;;;;;;;17.67;10.80;;;;;;;;;;4948765;28;20216;-81
2022/04/03 03:48:13;;;;;;;16.70;9.70;;;0.30;99.90;;;;;;4948903;28;20188;-81
2022/04/03 03:50:39;;;;;;;18.43;10.63;;;0.30;99.90;;;;;;4947788;28;20614;-81
2022/04/03 03:53:04;;;;;;;18.47;10.03;;;0.30;99.90;;;;;;4950642;28;20333;-82
2022/04/03 03:55:30;;;;;;;18.37;12.37;;;0.30;99.90;;;;;;4929091;28;21018;-82
2022/04/03 03:57:56;;;;;;;17.90;10.30;;;0.30;99.90;;;;;;4927849;28;20651;-80
2022/04/03 04:00:21;;;;;;;13.67;9.77;;;0.20;99.90;;;;;;4934313;28;20660;-82
2022/04/03 04:02:47;;;;;;;16.20;10.73;;;0.20;99.90;;;;;;4949103;28;20193;-81
2022/04/03 04:05:12;;;;;;;17.13;11.40;;;0.20;99.90;;;;;;4934301;28;20294;-81
2022/04/03 04:07:45;;;;;;;15.90;9.90;;;0.20;99.90;;;;;;4948025;28;20182;-82
2022/04/03 04:10:12;;;;;;;17.80;10.70;;;0.20;99.90;;;;;;4928692;28;20202;-80
2022/04/03 04:12:43;;;;;;;16.52;9.57;;;0.20;99.90;;;;;;4950307;28;20187;-81
2022/04/03 04:15:09;;;;;;;17.70;11.05;;;0.00;99.90;;;;;;4948049;28;20419;-82
2022/04/03 04:17:38;;;;;;;20.08;10.68;;;0.20;99.90;;;;;;4934800;28;20613;-80
2022/04/03 04:20:09;;;;;;;17.42;10.23;;;0.30;99.90;;;;;;4948355;28;20187;-82
2022/04/03 04:22:35;;;;;;;16.80;10.38;;;0.30;99.90;;;;;;4961683;28;20204;-79
2022/04/03 04:25:01;;;;;;;17.73;10.15;;;0.10;99.90;;;;;;4953797;28;20185;-80
2022/04/03 04:27:27;;;;;;;15.88;9.70;;;0.10;99.90;;;;;;4951438;28;20172;-79
2022/04/03 04:29:52;;;;;;;18.50;10.00;;;0.20;99.90;;;;;;4948433;28;20196;-82
2022/04/03 04:32:21;;;;;;;17.83;10.33;;;0.30;99.90;;;;;;4933112;28;20176;-81
2022/04/03 04:34:48;;;;;;;21.75;11.07;;;0.30;99.90;;;;;;4946588;28;20185;-82
2022/04/03 04:37:14;;;;;;;14.43;9.05;;;0.30;99.90;;;;;;4930441;28;20211;-81
2022/04/03 04:39:39;;;;;;;20.27;9.90;;;0.20;99.90;;;;;;4948867;28;20189;-81
2022/04/03 04:42:06;;;;;;;19.63;8.63;;;0.10;99.90;;;;;;4935158;28;20199;-83
2022/04/03 04:44:31;;;;;;;15.55;9.02;;;0.00;99.90;;;;;;4945847;28;20309;-81
2022/04/03 04:46:57;;;;;;;17.30;11.10;;;-0.10;99.90;;;;;;4931545;28;20691;-83
2022/04/03 04:49:22;;;;;;;18.10;9.67;;;0.00;99.90;;;;;;4946916;28;20172;-81
2022/04/03 04:51:48;;;;;;;16.10;10.37;;;0.00;99.90;;;;;;4928757;28;20204;-82
2022/04/03 04:54:14;;;;;;;18.37;10.63;;;0.10;99.90;;;;;;4949395;28;20191;-81
2022/04/03 04:56:40;;;;;;;17.67;10.30;;;-0.10;99.90;;;;;;4931034;28;20204;-81
2022/04/03 04:59:05;;;;;;;16.88;10.55;;;-0.10;99.90;;;;;;4948958;28;20183;-81
2022/04/03 05:01:31;;;;;;;17.53;11.17;;;0.00;99.90;;;;;;4945925;28;20188;-81
2022/04/03 05:03:56;;;;;;;19.00;10.50;;;0.10;99.90;;;;;;4949523;28;20188;-81
2022/04/03 05:06:26;;;;;;;13.87;9.57;;;0.00;99.90;;;;;;4949096;28;20208;-82
2022/04/03 05:08:53;;;;;;;20.05;10.32;;;0.00;99.90;;;;;;4929800;28;20184;-81
2022/04/03 05:11:18;;;;;;;17.85;10.23;;;0.00;99.90;;;;;;4943884;28;20193;-82
2022/04/03 05:13:45;;;;;;;15.00;9.80;;;0.00;99.90;;;;;;4929485;28;20852;-82
2022/04/03 05:16:11;;;;;;;21.10;10.27;;;0.10;99.90;;;;;;4942543;28;20286;-81
2022/04/03 05:18:37;;;;;;;15.03;9.67;;;0.30;99.90;;;;;;4932446;28;20182;-80
2022/04/03 05:21:06;;;;;;;17.77;8.80;;;0.30;99.90;;;;;;4946539;28;20215;-81
2022/04/03 05:23:32;;;;;;;15.48;9.13;;;0.30;99.90;;;;;;4946424;28;20437;-81
2022/04/03 05:25:58;;;;;;;17.30;10.63;;;0.30;99.90;;;;;;4947792;28;20203;-81
2022/04/03 05:28:23;;;;;;;21.40;9.90;;;0.30;99.90;;;;;;4945683;28;20188;-80
2022/04/03 05:30:49;;;;;;;14.50;9.40;;;0.10;99.90;;;;;;4927637;28;20199;-83
2022/04/03 05:33:15;;;;;;;15.20;9.00;;;0.20;99.90;;;;;;4933899;28;20180;-84
2022/04/03 05:35:42;;;;;;;15.67;9.10;;;0.20;99.90;;;;;;4930797;28;20472;-81
2022/04/03 05:38:08;;;;;;;18.27;9.38;;;0.20;99.90;;;;;;4944624;28;20199;-83
2022/04/03 05:40:33;;;;;;;18.03;9.97;;;0.20;99.90;;;;;;4948321;28;20244;-81
2022/04/03 05:43:00;;;;;;;16.30;9.80;;;;;;;;;;4951115;28;20483;-81
2022/04/03 05:45:26;;;;;;;18.27;9.52;;;0.30;99.90;;;;;;4948730;28;22064;-83
2022/04/03 05:47:52;;;;;;;15.70;8.52;;;0.50;99.90;;;;;;4945852;28;20283;-84
2022/04/03 05:50:19;;;;;;;15.52;10.13;;;0.60;99.90;;;;;;4945446;28;20276;-83
2022/04/03 05:52:47;;;;;;;14.85;9.65;;;0.80;99.90;;;;;;4946221;28;20199;-81
2022/04/03 05:55:16;;;;;;;24.42;10.35;;;0.90;99.90;;;;;;4930124;28;20197;-83
2022/04/03 05:57:42;;;;;;;14.13;9.30;;;1.10;99.90;;;;;;4946096;28;20178;-83
2022/04/03 06:00:12;;;;;;;13.33;8.33;;;1.20;99.90;;;;;;4949896;28;20243;-83
2022/04/03 06:02:58;;;;;;;15.18;9.27;;;1.30;99.90;;;;;;4946125;28;20571;-80
2022/04/03 06:05:29;;;;;;;13.10;9.15;;;1.40;99.90;;;;;;4948577;28;20205;-82
2022/04/03 06:07:55;;;;;;;17.25;7.88;;;1.50;99.90;;;;;;4948818;28;20227;-80
2022/04/03 06:10:22;;;;;;;15.48;9.07;;;1.20;99.90;;;;;;4936272;28;20748;-81
2022/04/03 06:12:58;;;;;;;13.35;7.78;;;1.30;99.90;;;;;;4949961;28;20180;-79
2022/04/03 06:15:28;;;;;;;12.27;8.68;;;1.30;99.90;;;;;;4929285;28;20264;-79
2022/04/03 06:17:54;;;;;;;13.18;8.40;;;1.70;99.90;;;;;;4925031;28;20830;-80
2022/04/03 06:20:21;;;;;;;13.13;8.27;;;2.00;99.90;;;;;;4930955;28;20276;-80
2022/04/03 06:22:47;;;;;;;13.98;8.68;;;2.40;99.90;;;;;;4944565;28;20460;-80
2022/04/03 06:25:14;;;;;;;12.40;8.02;;;2.90;99.90;;;;;;4944978;28;20275;-81
2022/04/03 06:27:39;;;;;;;10.30;6.10;;;3.50;99.90;;;;;;4940340;28;20271;-79
2022/04/03 06:30:06;;;;;;;9.40;7.17;;;4.30;99.90;;;;;;4939090;28;20264;-80
2022/04/03 06:32:31;;;;;;;13.43;5.95;;;4.60;99.90;;;;;;4931573;28;20405;-79
2022/04/03 06:34:57;;;;;;;7.07;5.73;;;5.60;99.90;;;;;;4946213;28;20216;-79
2022/04/03 06:37:23;;;;;;;8.50;5.97;;;6.50;99.90;;;;;;4943195;28;20240;-81
2022/04/03 06:39:48;;;;;;;7.10;4.70;;;8.20;99.90;;;;;;4936864;28;20444;-79
2022/04/03 06:42:14;;;;;;;7.40;5.10;;;9.50;99.90;;;;;;4947523;28;21664;-79
2022/04/03 06:44:40;;;;;;;5.65;5.00;;;10.50;99.90;;;;;;4945428;28;20191;-79
2022/04/03 06:47:06;;;;;;;5.87;5.03;;;11.20;99.90;;;;;;4927031;28;20934;-81
2022/04/03 06:49:33;;;;;;;6.65;4.95;;;11.80;99.90;;;;;;4924466;28;20212;-81
2022/04/03 06:51:59;;;;;;;7.00;5.10;;;11.70;99.90;;;;;;4944248;28;20215;-79
2022/04/03 06:54:24;;;;;;;6.90;5.50;;;12.20;99.90;;;;;;4944766;28;20236;-80
2022/04/03 06:56:52;;;;;;;6.63;5.37;;;13.10;99.90;;;;;;4943051;28;20572;-80
2022/04/03 06:59:18;;;;;;;6.35;5.10;;;13.60;99.90;;;;;;4927848;28;20609;-79
2022/04/03 07:01:44;;;;;;;10.77;5.57;;;13.80;98.40;;;;;;4944309;28;20268;-80
2022/04/03 07:04:09;;;;;;;8.37;5.93;;;14.50;97.10;;;;;;4946437;28;20185;-81
2022/04/03 07:06:35;;;;;;;6.37;5.37;;;15.00;95.30;;;;;;4929968;28;20567;-79
2022/04/03 07:09:00;;;;;;;7.67;5.90;;;16.30;92.80;;;;;;4946990;28;20535;-82
2022/04/03 07:11:26;;;;;;;8.40;5.30;;;15.30;87.30;;;;;;4930565;28;20224;-82
2022/04/03 07:13:51;;;;;;;8.97;5.17;;;15.00;91.00;;;;;;4946373;28;20185;-81
2022/04/03 07:16:17;;;;;;;5.20;4.33;;;16.90;89.20;;;;;;4932515;28;20204;-79
2022/04/03 07:18:43;;;;;;;6.47;5.43;;;16.20;81.60;;;;;;4929113;28;20191;-83
2022/04/03 07:21:08;;;;;;;7.80;5.53;;;16.30;81.50;;;;;;4950165;28;20720;-80
2022/04/03 07:23:34;;;;;;;8.33;5.13;;;15.10;79.00;;;;;;4929859;28;20216;-78
2022/04/03 07:25:59;;;;;;;8.37;5.40;;;14.90;82.20;;;;;;4946271;28;20859;-86
2022/04/03 07:28:25;;;;;;;8.23;5.03;;;;;;;;;;4931373;28;20181;-80
2022/04/03 07:30:51;;;;;;;6.37;4.60;;;;;;;;;;4943306;28;20629;-78
2022/04/03 07:33:20;;;;;;;5.90;4.33;;;14.20;78.70;;;;;;4927616;28;20490;-78
2022/04/03 07:35:47;;;;;;;6.93;5.13;;;14.70;77.60;;;;;;4941457;28;20467;-81
2022/04/03 07:38:12;;;;;;;6.22;4.95;;;14.30;76.10;;;;;;4928431;28;20436;-81
2022/04/03 07:40:38;;;;;;;7.60;4.40;;;14.50;75.80;;;;;;4927864;28;20260;-80
2022/04/03 07:43:04;;;;;;;5.60;4.67;;;;;;;;;;4943226;28;20188;-81
2022/04/03 07:45:30;;;;;;;7.20;4.60;;;;;;;;;;4939994;28;20315;-84
2022/04/03 07:53:00;;;;;;;5.87;4.00;;;14.20;75.60;;;;;;4961310;28;20493;-87
2022/04/03 07:55:26;;;;;;;6.60;5.57;;;14.30;76.30;;;;;;4962172;28;20435;-86
2022/04/03 07:57:52;;;;;;;7.07;4.63;;;16.30;73.10;;;;;;4938446;28;20253;-85
2022/04/03 08:00:17;;;;;;;4.93;3.90;;;18.50;70.10;;;;;;4947559;28;20195;-86
2022/04/03 08:02:43;;;;;;;5.27;4.00;;;19.80;65.10;;;;;;4958891;28;20192;-86
2022/04/03 08:05:10;;;;;;;6.00;4.23;;;17.90;58.40;;;;;;4945568;28;20196;-85
2022/04/03 08:07:46;;;;;;;9.23;5.50;;;15.90;60.50;;;;;;4947523;28;20852;-85
2022/04/03 08:10:17;;;;;;;6.53;4.65;;;14.90;60.50;;;;;;4947168;28;20478;-86
2022/04/03 08:12:44;;;;;;;8.95;5.95;;;12.80;65.60;;;;;;4945959;28;20235;-86
2022/04/03 08:15:11;;;;;;;7.55;4.50;;;13.70;69.50;;;;;;4963383;28;20176;-85
2022/04/03 08:17:40;;;;;;;6.55;4.35;;;14.40;67.10;;;;;;4943996;28;20304;-85
2022/04/03 08:20:08;;;;;;;6.45;4.72;;;15.00;67.30;;;;;;4946201;28;20180;-86
2022/04/03 08:22:35;;;;;;;7.25;4.40;;;16.10;67.80;;;;;;4966676;28;20187;-86
2022/04/03 08:25:01;;;;;;;9.70;5.20;;;16.40;65.00;;;;;;4943869;28;20179;-85
2022/04/03 08:27:44;;;;;;;5.65;4.28;;;15.80;65.80;;;;;;4964516;28;20203;-86
2022/04/03 08:30:13;;;;;;;7.60;4.43;;;13.50;62.00;;;;;;4938319;28;20416;-86
2022/04/03 08:32:39;;;;;;;9.98;4.53;;;12.00;65.30;;;;;;4939867;28;22055;-85
2022/04/03 08:35:07;;;;;;;7.47;6.13;;;12.50;69.20;;;;;;4941271;28;20649;-85
2022/04/03 08:37:33;;;;;;;8.82;5.03;;;12.30;70.20;;;;;;4941002;28;20270;-85
2022/04/03 08:39:58;;;;;;;8.90;5.10;;;13.00;71.90;;;;;;4954608;28;20183;-85
2022/04/03 09:29:42;;;;;;;7.57;4.70;;;11.30;71.90;;;;;;4951189;28;20645;-84
2022/04/03 09:32:11;;;;;;;7.72;4.47;;;13.60;73.30;;;;;;4914181;29;20185;-86
2022/04/03 09:34:38;;;;;;;10.77;4.15;;;15.10;66.40;;;;;;4911022;29;21035;-86
2022/04/03 09:37:06;;;;;;;7.22;4.20;;;14.80;61.50;;;;;;4915424;29;20221;-85
2022/04/03 09:39:34;;;;;;;9.05;5.07;;;12.50;58.60;;;;;;4913742;29;20328;-85
2022/04/03 09:42:09;;;;;;;6.05;4.20;;;10.70;63.00;;;;;;4910145;29;20192;-84
2022/04/03 09:44:41;;;;;;;6.80;4.35;;;9.20;70.80;;;;;;4908555;29;20308;-84
2022/04/03 09:47:19;;;;;;;7.45;4.30;;;8.00;73.20;;;;;;4914523;29;20189;-83
2022/04/03 09:50:06;;;;;;;6.70;4.10;;;7.10;78.90;;;;;;4903812;29;20189;-84
2022/04/03 09:52:34;;;;;;;11.07;4.53;;;6.40;81.60;;;;;;4913091;29;20197;-83
2022/04/03 09:55:01;;;;;;;16.92;6.25;;;5.90;84.60;;;;;;4909820;29;20201;-84
2022/04/03 09:57:26;;;;;;;11.43;4.72;;;5.50;86.00;;;;;;4925741;29;20226;-86
2022/04/03 09:59:54;;;;;;;8.27;5.43;;;5.30;89.30;;;;;;4913011;29;21335;-86
2022/04/03 10:02:24;;;;;;;12.35;4.50;;;5.20;92.30;;;;;;4919431;29;20188;-84
2022/04/03 10:04:51;;;;;;;7.30;4.25;;;5.10;94.10;;;;;;4941250;29;20177;-87
2022/04/03 10:07:20;;;;;;;10.52;4.63;;;4.80;91.00;;;;;;4922274;29;20222;-87
2022/04/03 10:09:53;;;;;;;11.65;6.00;;;4.40;93.60;;;;;;4891366;29;20205;-84
2022/04/03 10:12:21;;;;;;;7.78;5.32;;;4.30;96.90;;;;;;4906462;29;20288;-84
2022/04/03 10:14:49;;;;;;;9.23;4.30;;;4.50;96.60;;;;;;4901292;29;20217;-83
2022/04/03 10:17:17;;;;;;;7.78;4.88;;;4.90;97.70;;;;;;4908763;29;20216;-83
2022/04/03 10:19:43;;;;;;;9.63;4.05;;;4.60;97.10;;;;;;4922714;29;20919;-82
2022/04/03 10:22:19;;;;;;;6.85;4.38;;;4.30;97.20;;;;;;4908000;29;20299;-83
2022/04/03 10:24:51;;;;;;;10.35;6.07;;;4.40;99.20;;;;;;4903462;29;20453;-84
2022/04/03 10:27:39;;;;;;;6.30;3.50;;;4.80;99.90;;;;;;4924451;29;20188;-84
2022/04/03 10:30:06;;;;;;;8.57;4.53;;;4.90;99.90;;;;;;4926073;29;20210;-83
2022/04/03 10:32:36;;;;;;;5.28;3.53;;;4.90;98.00;;;;;;4904149;29;20181;-83
2022/04/03 10:35:08;;;;;;;7.22;4.70;;;4.90;98.30;;;;;;4903009;29;20192;-82
2022/04/03 10:37:42;;;;;;;8.35;4.75;;;4.90;98.80;;;;;;4913696;29;20326;-84
2022/04/03 10:40:18;;;;;;;6.15;4.18;;;4.80;97.90;;;;;;4899524;29;20189;-84
2022/04/03 10:42:58;;;;;;;9.32;4.63;;;4.70;98.60;;;;;;4896841;29;20679;-86
2022/04/03 10:45:28;;;;;;;10.68;4.50;;;4.60;99.90;;;;;;4901622;29;20190;-85
2022/04/03 10:48:19;;;;;;;8.05;4.93;;;4.20;99.90;;;;;;4903515;29;20221;-82
2022/04/03 10:51:09;;;;;;;9.15;4.80;;;4.00;99.90;;;;;;4901012;29;20264;-87
2022/04/03 10:53:43;;;;;;;5.30;3.92;;;3.70;99.90;;;;;;4903640;29;20978;-84
2022/04/03 10:56:29;;;;;;;5.68;4.18;;;3.30;99.90;;;;;;4904620;29;20186;-86
2022/04/03 10:58:59;;;;;;;6.07;4.43;;;2.80;99.90;;;;;;4900914;29;20248;-84
2022/04/03 11:01:31;;;;;;;6.75;4.40;;;2.60;99.90;;;;;;4896006;29;21129;-82
2022/04/03 11:04:07;;;;;;;9.35;4.20;;;2.70;99.90;;;;;;4902234;29;20226;-85
2022/04/03 11:06:35;;;;;;;12.02;3.97;;;2.70;99.90;;;;;;4899102;29;20295;-85
2022/04/03 11:09:05;;;;;;;6.57;4.47;;;2.80;99.90;;;;;;4903497;29;20737;-85
2022/04/03 11:12:00;;;;;;;6.03;4.05;;;2.80;99.90;;;;;;4919930;29;20225;-85
2022/04/03 11:14:57;;;;;;;7.82;4.57;;;3.00;99.90;;;;;;4904317;29;20269;-83
2022/04/03 11:17:44;;;;;;;5.05;3.63;;;3.20;99.90;;;;;;4906855;29;20206;-85
2022/04/03 11:20:10;;;;;;;6.80;4.75;;;3.30;99.90;;;;;;4931526;29;20916;-88
2022/04/03 11:22:36;;;;;;;4.50;3.80;;;3.20;99.90;;;;;;4906255;29;20346;-85
2022/04/03 11:25:03;;;;;;;8.13;4.32;;;3.30;99.90;;;;;;4906091;29;20676;-84
2022/04/03 11:27:29;;;;;;;5.75;4.47;;;3.40;99.90;;;;;;4895805;29;20671;-83
2022/04/03 11:29:54;;;;;;;9.80;4.50;;;3.50;99.90;;;;;;4908493;29;20190;-86
2022/04/03 11:32:20;;;;;;;5.50;4.80;;;3.60;99.90;;;;;;4906248;29;20186;-84
2022/04/03 11:34:57;;;;;;;16.15;4.10;;;4.10;99.90;;;;;;4971638;23;20239;-88
2022/04/03 11:37:23;;;;;;;4.60;3.88;;;4.50;99.90;;;;;;4993131;28;20203;-88
2022/04/03 11:39:49;;;;;;;10.43;4.13;;;4.90;99.90;;;;;;4968182;28;21500;-87
2022/04/03 11:42:14;;;;;;;7.60;5.00;;;4.80;99.90;;;;;;4985071;28;20231;-88
2022/04/03 11:44:51;;;;;;;5.50;4.60;;;5.20;99.90;;;;;;4958473;28;20281;-87
2022/04/03 11:47:24;;;;;;;5.50;3.85;;;5.50;99.90;;;;;;4954681;28;20203;-88
2022/04/03 11:50:13;;;;;;;5.43;4.15;;;5.60;99.90;;;;;;4951234;28;20586;-88
2022/04/03 11:52:39;;;;;;;4.68;3.50;;;5.60;99.90;;;;;;4958675;28;20187;-87
2022/04/03 11:55:10;;;;;;;11.03;4.17;;;5.30;99.90;;;;;;4938530;28;20285;-88
2022/04/03 11:57:36;;;;;;;5.20;4.55;;;5.10;99.90;;;;;;4946418;28;20589;-88
2022/04/03 12:00:02;;;;;;;8.50;5.45;;;5.10;99.90;;;;;;4971272;28;20183;-88
2022/04/03 12:02:28;;;;;;;5.80;3.50;;;5.20;99.90;;;;;;4946010;28;20188;-88
2022/04/03 12:04:57;;;;;;;6.80;4.30;;;5.30;99.90;;;;;;4952413;28;20199;-87
2022/04/03 12:07:22;;;;;;;7.82;5.18;;;5.70;99.90;;;;;;4954129;28;21089;-87
2022/04/03 12:09:48;;;;;;;5.90;3.93;;;6.00;99.90;;;;;;4971219;28;20315;-88
2022/04/03 12:12:13;;;;;;;6.70;5.33;;;6.80;99.90;;;;;;4952465;28;20238;-88
2022/04/03 12:14:42;;;;;;;8.53;3.47;;;7.10;99.90;;;;;;4953793;28;20571;-88
2022/04/03 12:17:10;;;;;;;6.70;3.88;;;7.30;99.90;;;;;;4955378;28;20200;-88
2022/04/03 12:19:38;;;;;;;6.72;4.20;;;8.40;99.90;;;;;;4945025;28;20176;-88
2022/04/03 12:22:04;;;;;;;7.50;4.60;;;8.30;99.90;;;;;;4944209;28;20652;-88
2022/04/03 12:24:32;;;;;;;6.35;4.57;;;8.60;99.90;;;;;;4947514;28;20208;-88
2022/04/03 12:27:14;;;;;;;6.60;4.60;;;8.70;98.50;;;;;;4956535;28;20227;-88
2022/04/03 12:29:47;;;;;;;7.38;5.90;;;8.50;95.60;;;;;;4952761;28;20215;-89
2022/04/03 12:32:15;;;;;;;4.90;3.40;;;8.20;94.90;;;;;;4970017;28;20194;-87
2022/04/03 12:34:42;;;;;;;5.90;3.97;;;8.20;95.00;;;;;;4939893;28;20223;-88
2022/04/03 12:37:09;;;;;;;3.70;3.10;;;7.90;94.70;;;;;;4948470;28;20211;-88
2022/04/03 12:39:51;;;;;;;6.85;3.80;;;7.20;97.60;;;;;;4950104;28;20192;-88
2022/04/03 12:42:39;;;;;;;6.25;3.47;;;6.80;98.30;;;;;;4951613;28;20186;-87
2022/04/03 12:45:11;;;;;;;3.95;3.10;;;6.40;97.20;;;;;;4953294;28;20204;-87
2022/04/03 12:48:00;;;;;;;3.58;2.85;;;6.40;98.00;;;;;;4944521;28;20319;-88
2022/04/03 12:50:34;;;;;;;3.20;2.28;;;6.20;99.20;;;;;;4944097;28;20640;-87
2022/04/03 12:53:04;;;;;;;5.43;3.20;;;6.20;97.60;;;;;;4948555;28;20179;-87
2022/04/03 12:55:58;;;;;;;3.85;3.05;;;6.00;97.30;;;;;;4952414;28;20204;-88
2022/04/03 12:58:25;;;;;;;3.08;2.78;;;5.70;99.20;;;;;;4957792;28;20314;-88
2022/04/03 13:00:56;;;;;;;4.03;3.03;;;5.80;98.40;;;;;;4947666;28;20191;-87
2022/04/03 13:03:28;;;;;;;10.43;3.97;;;5.90;99.90;;;;;;4952134;28;20164;-88
2022/04/03 13:05:59;;;;;;;3.47;2.80;;;5.90;99.90;;;;;;4967746;28;20212;-87
2022/04/03 13:08:25;;;;;;;4.60;2.50;;;5.60;98.00;;;;;;4951905;28;20935;-88
2022/04/03 13:10:55;;;;;;;3.97;2.90;;;5.80;99.90;;;;;;4948896;28;20191;-87
2022/04/03 13:13:29;;;;;;;4.93;2.97;;;6.40;98.10;;;;;;4949977;28;20542;-88
2022/04/03 13:15:56;;;;;;;4.80;2.75;;;6.40;98.90;;;;;;4947405;28;20184;-86
2022/04/03 13:18:22;;;;;;;7.18;3.45;;;6.00;98.10;;;;;;4951506;28;20242;-87
2022/04/03 13:20:58;;;;;;;4.40;3.42;;;6.00;99.90;;;;;;4947875;28;20191;-87
2022/04/03 13:23:26;;;;;;;6.07;3.05;;;8.70;98.10;;;;;;4946576;28;20205;-87
2022/04/03 13:25:52;;;;;;;3.88;3.08;;;6.80;97.50;;;;;;4942979;28;20232;-88
2022/04/03 13:28:19;;;;;;;6.70;3.67;;;6.80;96.40;;;;;;4949042;28;20311;-88
2022/04/03 13:30:47;;;;;;;5.30;3.25;;;7.20;98.00;;;;;;4954702;28;20184;-87
2022/04/03 13:33:13;;;;;;;4.43;2.85;;;6.40;96.90;;;;;;4968216;28;20281;-88
2022/04/03 13:35:38;;;;;;;5.80;3.63;;;6.20;97.40;;;;;;4949174;28;20191;-87
2022/04/03 13:38:05;;;;;;;5.70;3.97;;;6.90;99.50;;;;;;4953030;28;20463;-87
2022/04/03 13:40:32;;;;;;;6.20;3.95;;;6.60;99.90;;;;;;4947289;28;20436;-87
2022/04/03 13:42:57;;;;;;;6.68;4.50;;;5.90;99.90;;;;;;4948583;28;20265;-87